CYYZ/YYZ METAR and TAF weather

Enter ICAO airport designator
Station Type Date Time Source
CYYZ METAR 2021/04/13 08:00 UTC NOAA

CYYZ 130800Z 13005KT 15SM OVC007 08/07 A2997 RMK ST8 SLP155


Station Type Date Time Source
CYYZ Decoded METAR 2021/04/13 08:00 UTC NOAA

Toronto Pearson Int'L. Ont., Canada (CYYZ) 43-40N 079-38W 173M
Apr 13, 2021 - 04:00 AM EDT / 2021.04.13 0800 UTC
Wind: from the SE (130 degrees) at 6 MPH (5 KT):0
Visibility: 15 mile(s):0
Sky conditions: overcast
Temperature: 46 F (8 C)
Dew Point: 44 F (7 C)
Relative Humidity: 93%
Pressure (altimeter): 29.97 in. Hg (1014 hPa)
ob: CYYZ 130800Z 13005KT 15SM OVC007 08/07 A2997 RMK ST8 SLP155
cycle: 8

Station Type Date Time Source
CYYZ TAF 2021/04/13 06:42 UTC NOAA

TAF CYYZ 130541Z 1306/1412 08006KT P6SM OVC008
TEMPO 1306/1310 5SM BR OVC006
FM131000 VRB03KT 11/2SM -DZ BR OVC004 PROB40 1310/1314 3/4SM -DZ BR OVC003
FM131400 11005KT 3SM -RA -DZ BR OVC006
TEMPO 1314/1318 P6SM NSW BKN010 BKN030
FM131800 15008KT P6SM BKN010 BKN030
BECMG 1318/1320 FEW020 SCT040
FM132300 VRB03KT P6SM BKN060
FM140300 VRB03KT P6SM SCT050
FM140900 VRB03KT 6SM BR FEW070 PROB30 1409/1412 2SM BR BKN003
RMK NXT FCST BY 130900Z

Example: see airport list